createdAt,value
2019-04-21T00:00:58.603Z,26.65
2019-04-21T00:03:33.424Z,26.68
2019-04-21T00:06:18.643Z,26.73
2019-04-21T00:08:51.688Z,24.43
2019-04-21T00:11:25.063Z,26.65
2019-04-21T00:13:47.020Z,26.23
2019-04-21T00:16:10.867Z,25.25
2019-04-21T00:19:01.082Z,29.05
2019-04-21T00:21:34.452Z,27.87
2019-04-21T00:24:30.507Z,28.83
2019-04-21T00:27:03.847Z,27.90
2019-04-21T00:29:38.618Z,23.27
2019-04-21T00:32:06.764Z,25.43
2019-04-21T00:34:21.920Z,25.68
2019-04-21T00:37:03.106Z,27.67
2019-04-21T00:42:13.909Z,25.43
2019-04-21T00:44:38.792Z,27.37
2019-04-21T00:47:26.742Z,24.75
2019-04-21T00:49:56.663Z,26.60
2019-04-21T00:52:52.475Z,25.05
2019-04-21T00:55:29.217Z,23.25
2019-04-21T00:58:06.872Z,22.48
2019-04-21T01:00:33.208Z,25.25
2019-04-21T01:03:02.746Z,24.77
2019-04-21T01:05:52.875Z,25.97
2019-04-21T01:08:10.025Z,29.27
2019-04-21T01:10:32.011Z,24.77
2019-04-21T01:13:16.862Z,27.27
2019-04-21T01:15:49.005Z,28.83
2019-04-21T01:18:16.461Z,23.40
2019-04-21T01:20:27.180Z,30.52
2019-04-21T01:22:57.794Z,27.35
2019-04-21T01:25:35.297Z,31.15
2019-04-21T01:28:18.843Z,28.05
2019-04-21T01:30:53.587Z,27.50
2019-04-21T01:33:26.283Z,29.87
2019-04-21T01:35:54.474Z,28.55
2019-04-21T01:38:34.208Z,24.52
2019-04-21T01:41:08.575Z,27.93
2019-04-21T01:43:31.535Z,26.52
2019-04-21T01:46:06.787Z,21.73
2019-04-21T01:48:36.060Z,28.52
2019-04-21T01:51:05.327Z,26.10
2019-04-21T01:53:55.129Z,25.72
2019-04-21T01:56:44.540Z,30.25
2019-04-21T01:59:07.388Z,26.55
2019-04-21T02:01:52.295Z,28.60
2019-04-21T02:04:29.358Z,25.37
2019-04-21T02:06:57.297Z,25.70
2019-04-21T02:09:38.348Z,25.08
2019-04-21T02:12:14.789Z,27.22
2019-04-21T02:14:50.495Z,22.65
2019-04-21T02:17:20.381Z,27.02
2019-04-21T02:19:41.250Z,31.42
2019-04-21T02:22:25.869Z,27.00
2019-04-21T02:24:57.782Z,28.57
2019-04-21T02:27:23.410Z,28.73
2019-04-21T02:30:05.653Z,25.35
2019-04-21T02:32:48.257Z,23.75
2019-04-21T02:37:44.311Z,25.95
2019-04-21T02:40:15.003Z,31.70
2019-04-21T02:43:07.342Z,35.28
2019-04-21T02:45:22.951Z,27.02
2019-04-21T02:47:59.203Z,26.02
2019-04-21T02:50:24.371Z,30.82
2019-04-21T02:53:03.223Z,27.67
2019-04-21T03:03:34.355Z,28.77
2019-04-21T03:06:39.352Z,30.92
2019-04-21T03:08:59.040Z,26.65
2019-04-21T03:11:49.083Z,28.55
2019-04-21T03:14:13.675Z,32.08
2019-04-21T03:16:31.024Z,26.57
2019-04-21T03:19:06.358Z,26.68
2019-04-21T03:21:38.657Z,23.35
2019-04-21T03:24:29.476Z,24.35
2019-04-21T03:26:48.680Z,25.70
2019-04-21T03:29:22.402Z,26.45
2019-04-21T03:42:07.431Z,27.98
2019-04-21T03:44:32.265Z,23.12
2019-04-21T03:49:45.613Z,26.65
2019-04-21T03:52:19.516Z,25.52
2019-04-21T03:54:42.840Z,27.50
2019-04-21T03:57:17.774Z,26.00
2019-04-21T03:59:47.356Z,26.42
2019-04-21T04:02:27.402Z,25.17
2019-04-21T04:05:15.051Z,25.32
2019-04-21T04:08:02.157Z,24.98
2019-04-21T04:10:26.425Z,26.52
2019-04-21T04:12:57.196Z,24.65
2019-04-21T04:15:45.344Z,23.77
2019-04-21T04:18:05.422Z,23.47
2019-04-21T04:20:37.084Z,24.47
2019-04-21T04:23:08.077Z,23.05
2019-04-21T04:25:33.790Z,24.05
2019-04-21T04:28:28.758Z,23.90
2019-04-21T04:30:45.370Z,27.60
2019-04-21T04:33:20.662Z,23.30
2019-04-21T04:38:22.303Z,25.92
2019-04-21T04:41:16.939Z,24.85
2019-04-21T04:43:47.582Z,25.02
2019-04-21T04:46:33.340Z,30.92
2019-04-21T04:51:25.279Z,25.75
2019-04-21T04:53:47.198Z,21.62
2019-04-21T04:56:39.843Z,25.25
2019-04-21T05:01:54.945Z,22.37
2019-04-21T05:06:41.918Z,24.07
2019-04-21T05:09:11.021Z,19.23
2019-04-21T05:24:10.869Z,25.70
2019-04-21T05:26:37.120Z,24.72
2019-04-21T05:29:08.105Z,21.85
2019-04-21T05:32:13.660Z,23.55
2019-04-21T05:34:31.599Z,19.92
2019-04-21T05:37:25.643Z,21.45
2019-04-21T05:39:55.853Z,21.02
2019-04-21T05:42:30.281Z,24.72
2019-04-21T05:45:10.599Z,24.57
2019-04-21T05:48:06.009Z,24.10
2019-04-21T05:50:30.547Z,21.12
2019-04-21T05:52:53.583Z,19.32
2019-04-21T05:55:49.145Z,23.62
2019-04-21T05:58:08.487Z,21.85
2019-04-21T06:00:59.391Z,19.52
2019-04-21T06:03:17.610Z,23.47
2019-04-21T06:06:00.281Z,23.05
2019-04-21T06:08:17.918Z,22.25
2019-04-21T06:10:53.921Z,21.33
2019-04-21T06:13:31.622Z,22.62
2019-04-21T06:15:56.158Z,21.10
2019-04-21T06:18:36.396Z,17.87
2019-04-21T06:21:00.160Z,22.73
2019-04-21T06:23:30.104Z,21.97
2019-04-21T06:28:41.335Z,23.32
2019-04-21T06:31:17.989Z,21.75
2019-04-21T06:33:45.968Z,24.95
2019-04-21T06:39:11.636Z,22.55
2019-04-21T06:41:37.954Z,28.25
2019-04-21T06:44:23.975Z,21.52
2019-04-21T06:46:45.850Z,24.63
2019-04-21T06:49:08.583Z,22.13
2019-04-21T06:51:42.958Z,24.40
2019-04-21T06:54:16.180Z,24.45
2019-04-21T06:57:00.817Z,23.00
2019-04-21T06:59:25.318Z,25.62
2019-04-21T07:01:56.713Z,24.00
2019-04-21T07:06:59.236Z,25.48
2019-04-21T07:09:31.109Z,24.65
2019-04-21T07:11:59.878Z,26.77
2019-04-21T07:14:32.034Z,27.17
2019-04-21T07:17:12.627Z,23.15
2019-04-21T07:19:49.720Z,26.95
2019-04-21T07:22:12.712Z,23.87
2019-04-21T07:24:45.817Z,24.05
2019-04-21T07:27:15.210Z,28.52
2019-04-21T07:29:56.565Z,24.72
2019-04-21T07:32:20.730Z,25.40
2019-04-21T07:34:57.830Z,23.00
2019-04-21T07:37:23.939Z,26.10
2019-04-21T07:39:54.959Z,26.60
2019-04-21T07:42:24.406Z,28.02
2019-04-21T07:44:53.542Z,26.35
2019-04-21T07:47:40.545Z,24.72
2019-04-21T07:50:14.623Z,27.50
2019-04-21T07:53:05.186Z,26.65
2019-04-21T07:57:56.149Z,28.32
2019-04-21T08:00:36.121Z,28.40
2019-04-21T08:03:19.566Z,31.55
2019-04-21T08:05:43.986Z,26.57
2019-04-21T08:08:04.839Z,29.75
2019-04-21T08:10:40.776Z,30.72
2019-04-21T08:13:22.057Z,31.23
2019-04-21T08:15:45.873Z,32.70
2019-04-21T08:18:21.085Z,30.57
2019-04-21T08:20:50.734Z,28.25
2019-04-21T08:23:25.652Z,33.58
2019-04-21T08:26:03.782Z,29.85
2019-04-21T08:28:26.260Z,30.35
2019-04-21T08:31:01.622Z,30.43
2019-04-21T08:38:35.876Z,31.07
2019-04-21T08:41:08.052Z,30.15
2019-04-21T08:43:40.877Z,31.02
2019-04-21T08:46:16.105Z,35.33
2019-04-21T08:48:48.023Z,34.23
2019-04-21T08:51:27.583Z,33.38
2019-04-21T08:56:52.969Z,33.60
2019-04-21T08:59:50.670Z,31.12
2019-04-21T09:03:02.525Z,38.78
2019-04-21T09:05:11.594Z,34.80
2019-04-21T09:07:56.053Z,29.75
2019-04-21T09:10:16.894Z,32.10
2019-04-21T09:12:51.761Z,34.30
2019-04-21T09:15:30.031Z,30.52
2019-04-21T09:17:48.985Z,31.50
2019-04-21T09:20:40.197Z,37.67
2019-04-21T09:23:00.731Z,36.15
2019-04-21T09:25:40.714Z,34.65
2019-04-21T09:28:00.561Z,37.20
2019-04-21T09:30:17.607Z,34.03
2019-04-21T09:32:52.257Z,38.17
2019-04-21T09:35:21.903Z,37.80
2019-04-21T09:37:58.861Z,35.90
2019-04-21T09:40:31.554Z,35.15
2019-04-21T09:43:02.629Z,35.03
2019-04-21T09:45:28.637Z,34.45
2019-04-21T09:48:06.166Z,38.10
2019-04-21T09:50:34.507Z,35.13
2019-04-21T09:53:14.614Z,34.63
2019-04-21T09:55:43.966Z,36.13
2019-04-21T09:58:18.122Z,39.18
2019-04-21T10:00:50.991Z,34.73
2019-04-21T10:03:15.718Z,33.55
2019-04-21T10:05:45.232Z,34.92
2019-04-21T10:08:16.649Z,34.08
2019-04-21T10:10:47.370Z,36.25
2019-04-21T10:13:17.794Z,36.00
2019-04-21T10:15:54.553Z,35.65
2019-04-21T10:18:25.174Z,33.65
2019-04-21T10:20:56.955Z,34.35
2019-04-21T10:23:27.526Z,37.53
2019-04-21T10:25:58.723Z,37.53
2019-04-21T10:28:29.104Z,30.70
2019-04-21T10:31:00.674Z,37.30
2019-04-21T10:33:32.502Z,35.25
2019-04-21T10:36:04.585Z,31.87
2019-04-21T10:38:40.813Z,36.75
2019-04-21T10:41:07.686Z,32.78
2019-04-21T10:43:38.361Z,32.58
2019-04-21T10:46:08.837Z,33.70
2019-04-21T10:48:39.452Z,29.92
2019-04-21T10:51:10.761Z,38.08
2019-04-21T10:53:42.843Z,42.60
2019-04-21T10:56:21.748Z,36.15
2019-04-21T10:58:47.226Z,35.80
2019-04-21T11:01:29.435Z,34.35
2019-04-21T11:04:23.543Z,37.70
2019-04-21T11:06:50.495Z,38.50
2019-04-21T11:09:22.051Z,38.80
2019-04-21T11:11:53.594Z,39.88
2019-04-21T11:14:25.361Z,37.80
2019-04-21T11:16:56.572Z,35.40
2019-04-21T11:19:28.475Z,37.60
2019-04-21T11:21:59.169Z,40.10
2019-04-21T11:24:29.493Z,40.10
2019-04-21T11:27:00.342Z,42.30
2019-04-21T11:29:33.086Z,39.10
2019-04-21T11:32:03.595Z,41.92
2019-04-21T11:34:33.996Z,40.00
2019-04-21T11:37:06.026Z,37.95
2019-04-21T11:39:46.265Z,38.73
2019-04-21T11:42:17.730Z,38.45
2019-04-21T11:44:49.439Z,37.90
2019-04-21T11:47:28.409Z,36.70
2019-04-21T11:49:59.065Z,38.48
2019-04-21T11:52:29.549Z,37.38
2019-04-21T11:55:00.553Z,34.13
2019-04-21T11:57:36.723Z,39.55
2019-04-21T12:00:03.950Z,38.20
2019-04-21T12:02:35.301Z,34.67
2019-04-21T12:05:07.569Z,36.60
2019-04-21T12:07:38.044Z,32.75
2019-04-21T12:10:09.234Z,32.83
2019-04-21T12:12:41.252Z,35.70
2019-04-21T12:15:14.075Z,35.95
2019-04-21T12:17:44.218Z,34.83
2019-04-21T12:20:14.811Z,30.12
2019-04-21T12:22:45.434Z,34.63
2019-04-21T12:25:17.076Z,34.40
2019-04-21T12:27:47.869Z,29.55
2019-04-21T12:30:19.886Z,30.75
2019-04-21T12:33:16.159Z,30.43
2019-04-21T12:35:48.172Z,29.10
2019-04-21T12:38:30.209Z,25.08
2019-04-21T12:40:51.043Z,23.83
2019-04-21T12:43:21.405Z,23.83
2019-04-21T12:45:51.913Z,23.85
2019-04-21T12:48:22.347Z,21.70
2019-04-21T12:50:54.112Z,24.18
2019-04-21T12:53:25.556Z,23.22
2019-04-21T12:55:57.775Z,23.57
2019-04-21T12:58:29.092Z,28.35
2019-04-21T13:01:00.925Z,27.42
2019-04-21T13:03:32.183Z,29.37
2019-04-21T13:06:03.516Z,27.37
2019-04-21T13:08:49.084Z,28.10
2019-04-21T13:11:08.198Z,26.17
2019-04-21T13:13:39.922Z,22.48
2019-04-21T13:16:11.600Z,22.32
2019-04-21T13:18:42.485Z,21.93
2019-04-21T13:21:14.028Z,23.57
2019-04-21T13:23:45.152Z,28.87
2019-04-21T13:26:27.205Z,23.25
2019-04-21T13:28:48.056Z,23.27
2019-04-21T13:31:18.501Z,25.72
2019-04-21T13:33:50.121Z,21.37
2019-04-21T13:36:21.340Z,26.80
2019-04-21T13:39:45.841Z,25.17
2019-04-21T13:42:02.884Z,23.30
2019-04-21T13:44:23.298Z,18.77
2019-04-21T13:46:54.582Z,12.70
2019-04-21T13:49:25.384Z,8.90
2019-04-21T13:51:56.110Z,9.60
2019-04-21T13:54:27.452Z,8.85
2019-04-21T13:56:58.649Z,10.48
2019-04-21T13:59:29.307Z,6.45
2019-04-21T14:02:00.489Z,9.18
2019-04-21T14:04:31.481Z,11.40
2019-04-21T14:07:02.493Z,13.65
2019-04-21T14:09:43.121Z,12.10
2019-04-21T14:12:05.431Z,17.05
2019-04-21T14:14:36.609Z,20.20
2019-04-21T14:17:07.142Z,14.87
2019-04-21T14:19:37.586Z,14.68
2019-04-21T14:22:11.622Z,14.50
2019-04-21T14:24:41.731Z,13.43
2019-04-21T14:27:12.253Z,15.05
2019-04-21T14:29:43.828Z,12.40
2019-04-21T14:32:16.023Z,11.80
2019-04-21T14:34:50.206Z,11.83
2019-04-21T14:37:20.453Z,10.68
2019-04-21T14:39:59.632Z,12.28
2019-04-21T14:42:24.268Z,15.10
2019-04-21T14:44:54.882Z,10.55
2019-04-21T14:47:44.183Z,14.30
2019-04-21T14:50:32.705Z,14.20
2019-04-21T14:53:34.134Z,13.93
2019-04-21T14:56:04.594Z,14.15
2019-04-21T14:58:35.108Z,14.15
2019-04-21T15:01:08.310Z,14.35
2019-04-21T15:03:39.575Z,12.95
2019-04-21T15:06:11.575Z,11.10
2019-04-21T15:08:42.919Z,9.23
2019-04-21T15:11:13.972Z,10.40
2019-04-21T15:13:45.930Z,17.57
2019-04-21T15:16:16.593Z,12.25
2019-04-21T15:18:46.970Z,14.43
2019-04-21T15:21:17.580Z,12.68
2019-04-21T15:23:48.438Z,14.60
2019-04-21T15:26:20.057Z,13.72
2019-04-21T15:28:51.065Z,13.72
2019-04-21T15:31:28.798Z,14.60
2019-04-21T15:33:54.929Z,16.40
2019-04-21T15:36:25.391Z,12.80
2019-04-21T15:38:56.149Z,13.03
2019-04-21T15:41:26.935Z,14.43
2019-04-21T15:43:59.699Z,12.43
2019-04-21T15:46:32.190Z,16.52
2019-04-21T15:49:02.780Z,12.58
2019-04-21T15:51:33.741Z,12.05
2019-04-21T15:54:04.947Z,15.35
2019-04-21T15:56:46.964Z,12.93
2019-04-21T15:59:40.187Z,12.70
2019-04-21T16:02:28.647Z,11.08
2019-04-21T16:04:59.064Z,14.55
2019-04-21T16:07:29.872Z,14.65
2019-04-21T16:10:01.957Z,16.65
2019-04-21T16:12:33.820Z,13.50
2019-04-21T16:15:05.168Z,11.55
2019-04-21T16:17:35.568Z,14.07
2019-04-21T16:20:08.004Z,12.63
2019-04-21T16:22:38.919Z,13.13
2019-04-21T16:25:10.814Z,13.43
2019-04-21T16:27:41.477Z,16.02
2019-04-21T16:30:12.925Z,13.83
2019-04-21T16:32:43.999Z,16.37
2019-04-21T16:35:16.445Z,12.05
2019-04-21T16:37:47.741Z,14.47
2019-04-21T16:40:19.317Z,12.65
2019-04-21T16:42:50.129Z,11.68
2019-04-21T16:45:21.437Z,12.53
2019-04-21T16:47:53.648Z,10.90
2019-04-21T16:50:25.716Z,14.18
2019-04-21T16:53:01.746Z,12.00
2019-04-21T16:55:41.369Z,9.45
2019-04-21T16:58:30.785Z,13.78
2019-04-21T17:01:10.989Z,11.25
2019-04-21T17:03:37.741Z,13.50
2019-04-21T17:06:09.050Z,11.05
2019-04-21T17:08:40.919Z,12.88
2019-04-21T17:11:18.797Z,13.15
2019-04-21T17:13:43.662Z,11.70
2019-04-21T17:16:44.699Z,10.58
2019-04-21T17:18:57.428Z,12.43
2019-04-21T17:21:19.401Z,12.25
2019-04-21T17:23:50.477Z,12.47
2019-04-21T17:26:21.432Z,10.35
2019-04-21T17:28:54.211Z,9.83
2019-04-21T17:31:26.527Z,11.93
2019-04-21T17:34:01.951Z,12.60
2019-04-21T17:36:29.568Z,12.93
2019-04-21T17:39:00.223Z,13.58
2019-04-21T17:41:36.410Z,12.33
2019-04-21T17:44:02.720Z,14.50
2019-04-21T17:46:42.107Z,12.20
2019-04-21T17:49:05.410Z,30.72
2019-04-21T17:52:09.790Z,28.77
2019-04-21T17:54:48.502Z,35.00
2019-04-21T17:57:36.271Z,36.60
2019-04-21T18:00:25.866Z,46.65
2019-04-21T18:02:43.161Z,45.95
2019-04-21T18:05:15.212Z,42.38
2019-04-21T18:07:45.033Z,45.35
2019-04-21T18:10:11.530Z,38.15
2019-04-21T18:12:40.073Z,37.13
2019-04-21T18:15:18.040Z,41.80
2019-04-21T18:17:34.236Z,39.35
2019-04-21T18:20:06.081Z,38.65
2019-04-21T18:23:18.629Z,38.02
2019-04-21T18:25:50.438Z,39.10
2019-04-21T18:28:12.550Z,39.63
2019-04-21T18:30:56.280Z,40.63
2019-04-21T18:33:32.017Z,40.92
2019-04-21T18:36:22.299Z,39.45
2019-04-21T18:39:10.312Z,38.00
2019-04-21T18:41:32.248Z,43.28
2019-04-21T18:47:13.888Z,37.83
2019-04-21T18:49:43.722Z,40.45
2019-04-21T18:52:45.332Z,38.55
2019-04-21T18:55:16.636Z,46.40
2019-04-21T18:57:42.433Z,41.10
2019-04-21T19:00:18.222Z,39.27
2019-04-21T19:02:47.705Z,40.60
2019-04-21T19:05:19.186Z,40.60
2019-04-21T19:08:06.985Z,38.45
2019-04-21T19:13:29.138Z,40.98
2019-04-21T19:15:41.361Z,43.65
2019-04-21T19:20:44.855Z,40.48
2019-04-21T19:23:21.461Z,41.80
2019-04-21T19:25:58.611Z,42.67
2019-04-21T19:28:16.399Z,37.83
2019-04-21T19:30:56.458Z,39.58
2019-04-21T19:33:18.721Z,38.90
2019-04-21T19:35:39.389Z,41.40
2019-04-21T19:38:13.683Z,39.58
2019-04-21T19:40:56.331Z,39.88
2019-04-21T19:43:35.880Z,40.15
2019-04-21T19:46:04.339Z,45.50
2019-04-21T19:48:46.921Z,42.73
2019-04-21T19:51:10.596Z,48.95
2019-04-21T19:53:37.177Z,37.78
2019-04-21T19:55:56.100Z,44.40
2019-04-21T19:58:33.011Z,40.92
2019-04-21T20:00:59.767Z,38.60
2019-04-21T20:03:30.647Z,40.55
2019-04-21T20:06:12.751Z,42.75
2019-04-21T20:08:46.974Z,41.13
2019-04-21T20:11:23.854Z,46.18
2019-04-21T20:14:18.897Z,37.15
2019-04-21T20:16:33.888Z,38.60
2019-04-21T20:18:48.093Z,35.75
2019-04-21T20:21:14.354Z,39.10
2019-04-21T20:23:46.616Z,39.58
2019-04-21T20:26:17.578Z,40.33
2019-04-21T20:28:59.282Z,37.42
2019-04-21T20:31:37.357Z,36.33
2019-04-21T20:34:14.054Z,33.95
2019-04-21T20:36:51.820Z,36.48
2019-04-21T20:39:07.251Z,36.53
2019-04-21T20:41:41.000Z,34.95
2019-04-21T20:44:20.863Z,33.48
2019-04-21T20:46:50.320Z,41.85
2019-04-21T20:49:19.277Z,39.85
2019-04-21T20:52:01.623Z,38.30
2019-04-21T20:54:30.296Z,38.00
2019-04-21T20:57:01.570Z,38.23
2019-04-21T20:59:28.645Z,36.98
2019-04-21T21:02:05.685Z,34.43
2019-04-21T21:04:29.604Z,33.98
2019-04-21T21:07:16.176Z,35.23
2019-04-21T21:09:41.450Z,34.67
2019-04-21T21:12:24.700Z,35.20
2019-04-21T21:14:42.590Z,35.38
2019-04-21T21:17:34.447Z,35.58
2019-04-21T21:19:53.655Z,32.15
2019-04-21T21:22:14.409Z,37.42
2019-04-21T21:24:52.013Z,32.93
2019-04-21T21:27:19.170Z,34.13
2019-04-21T21:29:56.564Z,37.53
2019-04-21T21:32:40.025Z,36.88
2019-04-21T21:35:03.788Z,37.90
2019-04-21T21:37:36.897Z,35.98
2019-04-21T21:40:11.180Z,30.43
2019-04-21T21:42:27.618Z,36.15
2019-04-21T21:44:58.641Z,34.88
2019-04-21T21:47:46.268Z,34.27
2019-04-21T21:50:08.868Z,35.20
2019-04-21T21:52:42.612Z,41.13
2019-04-21T21:55:01.591Z,34.98
2019-04-21T21:57:34.138Z,38.65
2019-04-21T22:00:10.753Z,37.67
2019-04-21T22:02:44.226Z,34.35
2019-04-21T22:05:15.068Z,37.20
2019-04-21T22:07:42.509Z,34.88
2019-04-21T22:10:13.178Z,34.60
2019-04-21T22:12:53.903Z,36.73
2019-04-21T22:15:22.210Z,35.90
2019-04-21T22:18:07.328Z,34.80
2019-04-21T22:20:37.796Z,32.78
2019-04-21T22:22:59.423Z,31.27
2019-04-21T22:25:29.833Z,36.90
2019-04-21T22:27:57.935Z,35.83
2019-04-21T22:30:36.580Z,33.40
2019-04-21T22:33:06.936Z,32.65
2019-04-21T22:35:41.813Z,36.40
2019-04-21T22:38:20.807Z,36.20
2019-04-21T22:40:50.470Z,31.48
2019-04-21T22:43:19.717Z,31.73
2019-04-21T22:45:41.340Z,31.85
2019-04-21T22:48:16.608Z,37.70
2019-04-21T22:50:44.498Z,36.23
2019-04-21T22:53:16.152Z,33.08
2019-04-21T22:55:49.562Z,37.73
2019-04-21T22:58:28.272Z,34.85
2019-04-21T23:00:56.431Z,37.83
2019-04-21T23:03:25.242Z,35.58
2019-04-21T23:05:55.910Z,36.40
2019-04-21T23:08:32.991Z,37.58
2019-04-21T23:11:03.491Z,43.45
2019-04-21T23:13:31.289Z,37.35
2019-04-21T23:16:04.832Z,37.53
2019-04-21T23:18:46.115Z,34.43
2019-04-21T23:21:21.164Z,32.30
2019-04-21T23:23:59.550Z,34.90
2019-04-21T23:26:25.770Z,35.78
2019-04-21T23:29:01.920Z,38.88
2019-04-21T23:31:34.220Z,35.65
2019-04-21T23:33:48.430Z,36.93
2019-04-21T23:36:24.142Z,32.93
2019-04-21T23:38:53.260Z,35.28
2019-04-21T23:41:27.279Z,36.17
2019-04-21T23:43:59.171Z,35.13
2019-04-21T23:46:31.930Z,35.65
2019-04-21T23:49:16.069Z,48.60
2019-04-21T23:51:43.520Z,43.33
2019-04-21T23:54:05.037Z,40.63
2019-04-21T23:56:41.958Z,36.33
2019-04-21T23:59:11.580Z,40.10
